sensor_id;sensor_type;location;lat;lon;timestamp;P1;durP1;ratioP1;P2;durP2;ratioP2
32094;SDS011;18608;53.688;10.748;2023-08-01T00:02:25;3.23;;;2.47;;
32094;SDS011;18608;53.688;10.748;2023-08-01T00:04:51;3.50;;;2.70;;
32094;SDS011;18608;53.688;10.748;2023-08-01T00:07:17;7.07;;;3.40;;
32094;SDS011;18608;53.688;10.748;2023-08-01T00:09:43;3.77;;;3.27;;
32094;SDS011;18608;53.688;10.748;2023-08-01T00:12:09;3.43;;;3.13;;
32094;SDS011;18608;53.688;10.748;2023-08-01T00:14:35;5.70;;;3.77;;
32094;SDS011;18608;53.688;10.748;2023-08-01T00:17:01;3.17;;;2.93;;
32094;SDS011;18608;53.688;10.748;2023-08-01T00:19:28;3.80;;;3.30;;
32094;SDS011;18608;53.688;10.748;2023-08-01T00:21:54;4.10;;;2.90;;
32094;SDS011;18608;53.688;10.748;2023-08-01T00:24:19;5.17;;;3.23;;
32094;SDS011;18608;53.688;10.748;2023-08-01T00:26:45;5.97;;;3.37;;
32094;SDS011;18608;53.688;10.748;2023-08-01T00:29:12;3.07;;;2.63;;
32094;SDS011;18608;53.688;10.748;2023-08-01T00:31:38;3.40;;;3.17;;
32094;SDS011;18608;53.688;10.748;2023-08-01T00:34:04;3.70;;;3.30;;
32094;SDS011;18608;53.688;10.748;2023-08-01T00:36:30;3.67;;;3.17;;
32094;SDS011;18608;53.688;10.748;2023-08-01T00:38:56;5.63;;;4.57;;
32094;SDS011;18608;53.688;10.748;2023-08-01T00:41:22;4.50;;;3.07;;
32094;SDS011;18608;53.688;10.748;2023-08-01T00:43:48;3.83;;;3.10;;
32094;SDS011;18608;53.688;10.748;2023-08-01T00:46:14;5.20;;;2.90;;
32094;SDS011;18608;53.688;10.748;2023-08-01T00:48:40;4.30;;;2.40;;
32094;SDS011;18608;53.688;10.748;2023-08-01T00:51:06;2.20;;;2.00;;
32094;SDS011;18608;53.688;10.748;2023-08-01T00:53:34;2.43;;;2.23;;
32094;SDS011;18608;53.688;10.748;2023-08-01T00:56:00;2.77;;;2.43;;
32094;SDS011;18608;53.688;10.748;2023-08-01T00:58:26;5.40;;;2.63;;
32094;SDS011;18608;53.688;10.748;2023-08-01T01:00:53;2.67;;;2.43;;
32094;SDS011;18608;53.688;10.748;2023-08-01T01:03:20;2.00;;;1.90;;
32094;SDS011;18608;53.688;10.748;2023-08-01T01:05:52;4.00;;;2.37;;
32094;SDS011;18608;53.688;10.748;2023-08-01T01:08:22;3.50;;;3.03;;
32094;SDS011;18608;53.688;10.748;2023-08-01T01:10:48;4.57;;;2.80;;
32094;SDS011;18608;53.688;10.748;2023-08-01T01:13:14;3.83;;;2.60;;
32094;SDS011;18608;53.688;10.748;2023-08-01T01:15:40;3.47;;;2.60;;
32094;SDS011;18608;53.688;10.748;2023-08-01T01:18:06;2.50;;;2.27;;
32094;SDS011;18608;53.688;10.748;2023-08-01T01:20:34;2.27;;;2.13;;
32094;SDS011;18608;53.688;10.748;2023-08-01T01:23:00;4.10;;;2.60;;
32094;SDS011;18608;53.688;10.748;2023-08-01T01:25:29;3.90;;;2.40;;
32094;SDS011;18608;53.688;10.748;2023-08-01T01:27:57;2.30;;;2.13;;
32094;SDS011;18608;53.688;10.748;2023-08-01T01:30:24;2.37;;;2.20;;
32094;SDS011;18608;53.688;10.748;2023-08-01T01:32:51;2.20;;;2.00;;
32094;SDS011;18608;53.688;10.748;2023-08-01T01:35:18;2.10;;;1.60;;
32094;SDS011;18608;53.688;10.748;2023-08-01T01:37:44;3.33;;;2.10;;
32094;SDS011;18608;53.688;10.748;2023-08-01T01:40:09;2.13;;;2.00;;
32094;SDS011;18608;53.688;10.748;2023-08-01T01:42:36;2.50;;;2.30;;
32094;SDS011;18608;53.688;10.748;2023-08-01T01:45:02;2.30;;;2.10;;
32094;SDS011;18608;53.688;10.748;2023-08-01T01:47:28;2.13;;;1.60;;
32094;SDS011;18608;53.688;10.748;2023-08-01T01:49:54;5.43;;;2.40;;
32094;SDS011;18608;53.688;10.748;2023-08-01T01:52:20;3.93;;;1.80;;
32094;SDS011;18608;53.688;10.748;2023-08-01T01:54:46;3.73;;;2.17;;
32094;SDS011;18608;53.688;10.748;2023-08-01T01:57:12;2.30;;;2.00;;
32094;SDS011;18608;53.688;10.748;2023-08-01T01:59:38;2.70;;;2.50;;
32094;SDS011;18608;53.688;10.748;2023-08-01T02:02:04;1.90;;;1.70;;
32094;SDS011;18608;53.688;10.748;2023-08-01T02:04:30;6.50;;;2.13;;
32094;SDS011;18608;53.688;10.748;2023-08-01T02:06:56;3.00;;;2.60;;
32094;SDS011;18608;53.688;10.748;2023-08-01T02:09:22;2.70;;;2.50;;
32094;SDS011;18608;53.688;10.748;2023-08-01T02:11:48;2.70;;;2.50;;
32094;SDS011;18608;53.688;10.748;2023-08-01T02:14:14;2.67;;;2.17;;
32094;SDS011;18608;53.688;10.748;2023-08-01T02:16:41;3.33;;;2.20;;
32094;SDS011;18608;53.688;10.748;2023-08-01T02:19:07;1.83;;;1.73;;
32094;SDS011;18608;53.688;10.748;2023-08-01T02:21:33;3.47;;;2.13;;
32094;SDS011;18608;53.688;10.748;2023-08-01T02:23:59;2.17;;;2.07;;
32094;SDS011;18608;53.688;10.748;2023-08-01T02:26:25;6.37;;;2.80;;
32094;SDS011;18608;53.688;10.748;2023-08-01T02:28:51;7.60;;;2.27;;
32094;SDS011;18608;53.688;10.748;2023-08-01T02:31:17;2.83;;;2.17;;
32094;SDS011;18608;53.688;10.748;2023-08-01T02:33:43;2.50;;;2.30;;
32094;SDS011;18608;53.688;10.748;2023-08-01T02:36:09;2.53;;;2.30;;
32094;SDS011;18608;53.688;10.748;2023-08-01T02:38:35;3.57;;;3.17;;
32094;SDS011;18608;53.688;10.748;2023-08-01T02:41:01;4.23;;;2.60;;
32094;SDS011;18608;53.688;10.748;2023-08-01T02:43:27;5.37;;;3.00;;
32094;SDS011;18608;53.688;10.748;2023-08-01T02:45:53;3.63;;;2.40;;
32094;SDS011;18608;53.688;10.748;2023-08-01T02:48:19;3.93;;;2.97;;
32094;SDS011;18608;53.688;10.748;2023-08-01T02:50:45;3.77;;;3.47;;
32094;SDS011;18608;53.688;10.748;2023-08-01T02:53:11;7.03;;;3.70;;
32094;SDS011;18608;53.688;10.748;2023-08-01T02:55:37;3.90;;;3.50;;
32094;SDS011;18608;53.688;10.748;2023-08-01T02:58:04;6.33;;;4.17;;
32094;SDS011;18608;53.688;10.748;2023-08-01T03:00:30;4.63;;;3.63;;
32094;SDS011;18608;53.688;10.748;2023-08-01T03:02:57;3.93;;;3.60;;
32094;SDS011;18608;53.688;10.748;2023-08-01T03:05:23;6.30;;;4.10;;
32094;SDS011;18608;53.688;10.748;2023-08-01T03:07:49;9.93;;;4.90;;
32094;SDS011;18608;53.688;10.748;2023-08-01T03:10:15;13.63;;;5.30;;
32094;SDS011;18608;53.688;10.748;2023-08-01T03:12:41;6.33;;;5.27;;
32094;SDS011;18608;53.688;10.748;2023-08-01T03:15:07;8.53;;;5.50;;
32094;SDS011;18608;53.688;10.748;2023-08-01T03:17:34;6.70;;;5.60;;
32094;SDS011;18608;53.688;10.748;2023-08-01T03:19:59;10.30;;;5.17;;
32094;SDS011;18608;53.688;10.748;2023-08-01T03:22:25;11.90;;;6.07;;
32094;SDS011;18608;53.688;10.748;2023-08-01T03:24:51;8.00;;;5.40;;
32094;SDS011;18608;53.688;10.748;2023-08-01T03:27:17;14.73;;;7.30;;
32094;SDS011;18608;53.688;10.748;2023-08-01T03:29:43;12.37;;;6.03;;
32094;SDS011;18608;53.688;10.748;2023-08-01T03:32:09;10.90;;;6.00;;
32094;SDS011;18608;53.688;10.748;2023-08-01T03:34:35;11.33;;;6.97;;
32094;SDS011;18608;53.688;10.748;2023-08-01T03:37:04;11.90;;;6.50;;
32094;SDS011;18608;53.688;10.748;2023-08-01T03:39:29;11.90;;;5.37;;
32094;SDS011;18608;53.688;10.748;2023-08-01T03:41:55;13.30;;;6.23;;
32094;SDS011;18608;53.688;10.748;2023-08-01T03:44:21;11.83;;;6.83;;
32094;SDS011;18608;53.688;10.748;2023-08-01T03:46:48;11.23;;;6.17;;
32094;SDS011;18608;53.688;10.748;2023-08-01T03:49:14;12.83;;;5.73;;
32094;SDS011;18608;53.688;10.748;2023-08-01T03:51:40;14.60;;;5.87;;
32094;SDS011;18608;53.688;10.748;2023-08-01T03:54:06;7.23;;;5.83;;
32094;SDS011;18608;53.688;10.748;2023-08-01T03:56:32;10.43;;;5.90;;
32094;SDS011;18608;53.688;10.748;2023-08-01T03:58:58;11.77;;;7.53;;
32094;SDS011;18608;53.688;10.748;2023-08-01T04:01:24;8.57;;;6.13;;
32094;SDS011;18608;53.688;10.748;2023-08-01T04:03:50;8.20;;;5.70;;
32094;SDS011;18608;53.688;10.748;2023-08-01T04:06:16;9.53;;;6.80;;
32094;SDS011;18608;53.688;10.748;2023-08-01T04:08:43;9.53;;;7.50;;
32094;SDS011;18608;53.688;10.748;2023-08-01T04:11:09;10.73;;;6.43;;
32094;SDS011;18608;53.688;10.748;2023-08-01T04:13:36;11.73;;;7.37;;
32094;SDS011;18608;53.688;10.748;2023-08-01T04:16:02;7.67;;;6.73;;
32094;SDS011;18608;53.688;10.748;2023-08-01T04:18:28;15.53;;;6.67;;
32094;SDS011;18608;53.688;10.748;2023-08-01T04:20:54;10.10;;;7.40;;
32094;SDS011;18608;53.688;10.748;2023-08-01T04:23:20;14.00;;;7.20;;
32094;SDS011;18608;53.688;10.748;2023-08-01T04:25:46;10.60;;;7.00;;
32094;SDS011;18608;53.688;10.748;2023-08-01T04:28:12;16.40;;;7.87;;
32094;SDS011;18608;53.688;10.748;2023-08-01T04:30:38;12.63;;;7.77;;
32094;SDS011;18608;53.688;10.748;2023-08-01T04:33:04;12.30;;;8.67;;
32094;SDS011;18608;53.688;10.748;2023-08-01T04:35:30;15.20;;;7.30;;
32094;SDS011;18608;53.688;10.748;2023-08-01T04:37:56;11.33;;;7.53;;
32094;SDS011;18608;53.688;10.748;2023-08-01T04:40:22;16.63;;;8.20;;
32094;SDS011;18608;53.688;10.748;2023-08-01T04:42:48;9.60;;;7.80;;
32094;SDS011;18608;53.688;10.748;2023-08-01T04:45:14;11.97;;;8.43;;
32094;SDS011;18608;53.688;10.748;2023-08-01T04:47:40;12.63;;;8.47;;
32094;SDS011;18608;53.688;10.748;2023-08-01T04:50:06;15.57;;;9.70;;
32094;SDS011;18608;53.688;10.748;2023-08-01T04:52:32;14.37;;;10.30;;
32094;SDS011;18608;53.688;10.748;2023-08-01T04:54:58;18.27;;;8.40;;
32094;SDS011;18608;53.688;10.748;2023-08-01T04:57:24;11.13;;;8.13;;
32094;SDS011;18608;53.688;10.748;2023-08-01T04:59:50;14.40;;;9.73;;
32094;SDS011;18608;53.688;10.748;2023-08-01T05:02:16;14.30;;;8.57;;
32094;SDS011;18608;53.688;10.748;2023-08-01T05:04:42;12.53;;;8.27;;
32094;SDS011;18608;53.688;10.748;2023-08-01T05:07:08;13.30;;;9.30;;
32094;SDS011;18608;53.688;10.748;2023-08-01T05:09:34;18.93;;;10.30;;
32094;SDS011;18608;53.688;10.748;2023-08-01T05:12:00;14.47;;;9.70;;
32094;SDS011;18608;53.688;10.748;2023-08-01T05:14:26;16.13;;;9.87;;
32094;SDS011;18608;53.688;10.748;2023-08-01T05:16:52;14.57;;;9.33;;
32094;SDS011;18608;53.688;10.748;2023-08-01T05:19:18;15.47;;;9.70;;
32094;SDS011;18608;53.688;10.748;2023-08-01T05:21:44;12.43;;;10.13;;
32094;SDS011;18608;53.688;10.748;2023-08-01T05:24:11;17.30;;;9.40;;
32094;SDS011;18608;53.688;10.748;2023-08-01T05:26:37;12.40;;;9.50;;
32094;SDS011;18608;53.688;10.748;2023-08-01T05:29:03;22.33;;;10.00;;
32094;SDS011;18608;53.688;10.748;2023-08-01T05:31:29;18.87;;;9.20;;
32094;SDS011;18608;53.688;10.748;2023-08-01T05:33:55;19.80;;;8.60;;
32094;SDS011;18608;53.688;10.748;2023-08-01T05:36:21;13.80;;;9.53;;
32094;SDS011;18608;53.688;10.748;2023-08-01T05:38:47;11.97;;;8.20;;
32094;SDS011;18608;53.688;10.748;2023-08-01T05:41:13;12.57;;;9.23;;
32094;SDS011;18608;53.688;10.748;2023-08-01T05:43:39;25.73;;;9.80;;
32094;SDS011;18608;53.688;10.748;2023-08-01T05:46:05;14.40;;;9.33;;
32094;SDS011;18608;53.688;10.748;2023-08-01T05:48:31;14.90;;;9.67;;
32094;SDS011;18608;53.688;10.748;2023-08-01T05:50:57;16.47;;;9.27;;
32094;SDS011;18608;53.688;10.748;2023-08-01T05:53:24;14.87;;;10.17;;
32094;SDS011;18608;53.688;10.748;2023-08-01T05:55:50;26.43;;;11.63;;
32094;SDS011;18608;53.688;10.748;2023-08-01T05:58:16;14.40;;;9.03;;
32094;SDS011;18608;53.688;10.748;2023-08-01T06:00:42;18.93;;;9.80;;
32094;SDS011;18608;53.688;10.748;2023-08-01T06:03:08;16.30;;;9.70;;
32094;SDS011;18608;53.688;10.748;2023-08-01T06:05:35;15.77;;;9.97;;
32094;SDS011;18608;53.688;10.748;2023-08-01T06:08:02;17.20;;;9.33;;
32094;SDS011;18608;53.688;10.748;2023-08-01T06:10:28;15.27;;;9.60;;
32094;SDS011;18608;53.688;10.748;2023-08-01T06:12:54;14.03;;;9.50;;
32094;SDS011;18608;53.688;10.748;2023-08-01T06:15:20;18.93;;;9.73;;
32094;SDS011;18608;53.688;10.748;2023-08-01T06:17:47;16.97;;;9.40;;
32094;SDS011;18608;53.688;10.748;2023-08-01T06:20:13;14.07;;;9.20;;
32094;SDS011;18608;53.688;10.748;2023-08-01T06:22:39;17.83;;;9.93;;
32094;SDS011;18608;53.688;10.748;2023-08-01T06:25:05;15.87;;;8.70;;
32094;SDS011;18608;53.688;10.748;2023-08-01T06:27:34;11.13;;;7.73;;
32094;SDS011;18608;53.688;10.748;2023-08-01T06:30:00;11.70;;;8.23;;
32094;SDS011;18608;53.688;10.748;2023-08-01T06:32:26;15.20;;;8.63;;
32094;SDS011;18608;53.688;10.748;2023-08-01T06:34:52;16.13;;;9.20;;
32094;SDS011;18608;53.688;10.748;2023-08-01T06:37:18;18.97;;;7.20;;
32094;SDS011;18608;53.688;10.748;2023-08-01T06:39:44;14.23;;;7.53;;
32094;SDS011;18608;53.688;10.748;2023-08-01T06:42:10;9.97;;;7.20;;
32094;SDS011;18608;53.688;10.748;2023-08-01T06:44:36;14.03;;;7.77;;
32094;SDS011;18608;53.688;10.748;2023-08-01T06:47:02;11.10;;;6.23;;
32094;SDS011;18608;53.688;10.748;2023-08-01T06:49:28;7.60;;;5.13;;
32094;SDS011;18608;53.688;10.748;2023-08-01T06:51:54;5.97;;;4.20;;
32094;SDS011;18608;53.688;10.748;2023-08-01T06:54:20;4.60;;;3.40;;
32094;SDS011;18608;53.688;10.748;2023-08-01T06:56:46;7.00;;;3.30;;
32094;SDS011;18608;53.688;10.748;2023-08-01T06:59:15;7.20;;;3.93;;
32094;SDS011;18608;53.688;10.748;2023-08-01T07:01:41;5.70;;;4.30;;
32094;SDS011;18608;53.688;10.748;2023-08-01T07:04:11;16.43;;;6.33;;
32094;SDS011;18608;53.688;10.748;2023-08-01T07:06:39;6.40;;;3.90;;
32094;SDS011;18608;53.688;10.748;2023-08-01T07:09:05;4.87;;;4.03;;
32094;SDS011;18608;53.688;10.748;2023-08-01T07:11:31;9.93;;;4.00;;
32094;SDS011;18608;53.688;10.748;2023-08-01T07:13:57;5.23;;;4.40;;
32094;SDS011;18608;53.688;10.748;2023-08-01T07:16:23;6.30;;;5.20;;
32094;SDS011;18608;53.688;10.748;2023-08-01T07:18:49;6.67;;;4.83;;
32094;SDS011;18608;53.688;10.748;2023-08-01T07:21:16;7.43;;;5.07;;
32094;SDS011;18608;53.688;10.748;2023-08-01T07:23:42;6.93;;;4.90;;
32094;SDS011;18608;53.688;10.748;2023-08-01T07:26:08;11.03;;;5.83;;
32094;SDS011;18608;53.688;10.748;2023-08-01T07:28:34;8.80;;;5.00;;
32094;SDS011;18608;53.688;10.748;2023-08-01T07:31:01;7.60;;;5.67;;
32094;SDS011;18608;53.688;10.748;2023-08-01T07:33:30;10.60;;;6.57;;
32094;SDS011;18608;53.688;10.748;2023-08-01T07:35:56;6.83;;;5.53;;
32094;SDS011;18608;53.688;10.748;2023-08-01T07:38:22;8.60;;;6.57;;
32094;SDS011;18608;53.688;10.748;2023-08-01T07:40:48;12.87;;;7.30;;
32094;SDS011;18608;53.688;10.748;2023-08-01T07:43:14;9.20;;;6.33;;
32094;SDS011;18608;53.688;10.748;2023-08-01T07:45:40;7.27;;;6.27;;
32094;SDS011;18608;53.688;10.748;2023-08-01T07:48:06;12.17;;;7.50;;
32094;SDS011;18608;53.688;10.748;2023-08-01T07:50:33;10.90;;;6.63;;
32094;SDS011;18608;53.688;10.748;2023-08-01T07:52:59;11.83;;;6.90;;
32094;SDS011;18608;53.688;10.748;2023-08-01T07:55:25;11.40;;;7.90;;
32094;SDS011;18608;53.688;10.748;2023-08-01T07:57:51;9.47;;;7.83;;
32094;SDS011;18608;53.688;10.748;2023-08-01T08:00:17;17.20;;;7.13;;
32094;SDS011;18608;53.688;10.748;2023-08-01T08:02:45;13.60;;;8.43;;
32094;SDS011;18608;53.688;10.748;2023-08-01T08:05:11;14.70;;;8.27;;
32094;SDS011;18608;53.688;10.748;2023-08-01T08:07:37;14.43;;;7.10;;
32094;SDS011;18608;53.688;10.748;2023-08-01T08:10:04;17.00;;;7.20;;
32094;SDS011;18608;53.688;10.748;2023-08-01T08:12:30;7.73;;;6.93;;
32094;SDS011;18608;53.688;10.748;2023-08-01T08:14:56;8.63;;;6.47;;
32094;SDS011;18608;53.688;10.748;2023-08-01T08:17:22;10.40;;;7.03;;
32094;SDS011;18608;53.688;10.748;2023-08-01T08:19:48;9.07;;;6.37;;
32094;SDS011;18608;53.688;10.748;2023-08-01T08:22:14;11.03;;;6.23;;
32094;SDS011;18608;53.688;10.748;2023-08-01T08:24:40;20.30;;;6.10;;
32094;SDS011;18608;53.688;10.748;2023-08-01T08:27:06;8.70;;;5.77;;
32094;SDS011;18608;53.688;10.748;2023-08-01T08:29:32;13.20;;;5.53;;
32094;SDS011;18608;53.688;10.748;2023-08-01T08:31:58;7.93;;;4.60;;
32094;SDS011;18608;53.688;10.748;2023-08-01T08:34:24;7.73;;;5.63;;
32094;SDS011;18608;53.688;10.748;2023-08-01T08:36:51;7.63;;;5.40;;
32094;SDS011;18608;53.688;10.748;2023-08-01T08:39:17;9.27;;;4.80;;
32094;SDS011;18608;53.688;10.748;2023-08-01T08:41:47;8.93;;;4.60;;
32094;SDS011;18608;53.688;10.748;2023-08-01T08:44:16;8.77;;;4.40;;
32094;SDS011;18608;53.688;10.748;2023-08-01T08:46:44;5.47;;;4.87;;
32094;SDS011;18608;53.688;10.748;2023-08-01T08:49:16;4.90;;;4.00;;
32094;SDS011;18608;53.688;10.748;2023-08-01T08:51:42;4.00;;;3.57;;
32094;SDS011;18608;53.688;10.748;2023-08-01T08:54:10;5.33;;;3.10;;
32094;SDS011;18608;53.688;10.748;2023-08-01T08:56:36;5.90;;;4.00;;
32094;SDS011;18608;53.688;10.748;2023-08-01T08:59:03;3.93;;;3.53;;
32094;SDS011;18608;53.688;10.748;2023-08-01T09:01:29;13.43;;;3.20;;
32094;SDS011;18608;53.688;10.748;2023-08-01T09:03:57;7.10;;;3.30;;
32094;SDS011;18608;53.688;10.748;2023-08-01T09:06:24;6.13;;;3.27;;
32094;SDS011;18608;53.688;10.748;2023-08-01T09:08:55;6.47;;;3.87;;
32094;SDS011;18608;53.688;10.748;2023-08-01T09:11:26;8.50;;;4.57;;
32094;SDS011;18608;53.688;10.748;2023-08-01T09:13:52;6.60;;;2.93;;
32094;SDS011;18608;53.688;10.748;2023-08-01T09:16:18;8.93;;;4.10;;
32094;SDS011;18608;53.688;10.748;2023-08-01T09:18:51;6.67;;;3.63;;
32094;SDS011;18608;53.688;10.748;2023-08-01T09:21:21;6.50;;;3.93;;
32094;SDS011;18608;53.688;10.748;2023-08-01T09:23:47;6.80;;;4.27;;
32094;SDS011;18608;53.688;10.748;2023-08-01T09:26:14;5.60;;;3.40;;
32094;SDS011;18608;53.688;10.748;2023-08-01T09:28:40;7.77;;;3.77;;
32094;SDS011;18608;53.688;10.748;2023-08-01T09:31:06;10.50;;;3.83;;
32094;SDS011;18608;53.688;10.748;2023-08-01T09:33:42;11.37;;;4.10;;
32094;SDS011;18608;53.688;10.748;2023-08-01T09:36:08;5.03;;;2.90;;
32094;SDS011;18608;53.688;10.748;2023-08-01T09:38:34;9.17;;;3.23;;
32094;SDS011;18608;53.688;10.748;2023-08-01T09:41:01;10.30;;;3.50;;
32094;SDS011;18608;53.688;10.748;2023-08-01T09:43:33;4.20;;;3.07;;
32094;SDS011;18608;53.688;10.748;2023-08-01T09:46:02;6.23;;;3.30;;
32094;SDS011;18608;53.688;10.748;2023-08-01T09:48:29;6.83;;;2.73;;
32094;SDS011;18608;53.688;10.748;2023-08-01T09:51:09;3.80;;;2.77;;
32094;SDS011;18608;53.688;10.748;2023-08-01T09:53:37;3.90;;;2.83;;
32094;SDS011;18608;53.688;10.748;2023-08-01T09:56:15;6.37;;;3.27;;
32094;SDS011;18608;53.688;10.748;2023-08-01T09:58:45;9.97;;;3.20;;
32094;SDS011;18608;53.688;10.748;2023-08-01T10:01:12;4.63;;;3.30;;
32094;SDS011;18608;53.688;10.748;2023-08-01T10:03:40;6.77;;;2.97;;
32094;SDS011;18608;53.688;10.748;2023-08-01T10:06:09;5.07;;;2.97;;
32094;SDS011;18608;53.688;10.748;2023-08-01T10:08:39;3.77;;;3.07;;
32094;SDS011;18608;53.688;10.748;2023-08-01T10:11:05;4.23;;;3.33;;
32094;SDS011;18608;53.688;10.748;2023-08-01T10:13:31;4.10;;;3.30;;
32094;SDS011;18608;53.688;10.748;2023-08-01T10:15:58;5.90;;;3.63;;
32094;SDS011;18608;53.688;10.748;2023-08-01T10:18:24;4.17;;;3.67;;
32094;SDS011;18608;53.688;10.748;2023-08-01T10:20:53;7.80;;;3.33;;
32094;SDS011;18608;53.688;10.748;2023-08-01T10:23:19;5.57;;;3.13;;
32094;SDS011;18608;53.688;10.748;2023-08-01T10:25:45;4.70;;;3.67;;
32094;SDS011;18608;53.688;10.748;2023-08-01T10:28:11;5.97;;;3.30;;
32094;SDS011;18608;53.688;10.748;2023-08-01T10:30:37;9.77;;;4.00;;
32094;SDS011;18608;53.688;10.748;2023-08-01T10:33:03;7.33;;;4.10;;
32094;SDS011;18608;53.688;10.748;2023-08-01T10:38:05;3.80;;;3.50;;
32094;SDS011;18608;53.688;10.748;2023-08-01T10:40:41;5.67;;;3.50;;
32094;SDS011;18608;53.688;10.748;2023-08-01T10:43:24;4.97;;;4.20;;
32094;SDS011;18608;53.688;10.748;2023-08-01T10:46:02;8.07;;;4.70;;
32094;SDS011;18608;53.688;10.748;2023-08-01T10:48:28;9.90;;;4.03;;
32094;SDS011;18608;53.688;10.748;2023-08-01T10:50:55;4.17;;;3.50;;
32094;SDS011;18608;53.688;10.748;2023-08-01T10:53:21;3.80;;;3.50;;
32094;SDS011;18608;53.688;10.748;2023-08-01T10:55:48;9.00;;;4.83;;
32094;SDS011;18608;53.688;10.748;2023-08-01T10:58:14;7.23;;;3.87;;
32094;SDS011;18608;53.688;10.748;2023-08-01T11:00:41;3.73;;;3.43;;
32094;SDS011;18608;53.688;10.748;2023-08-01T11:03:07;4.20;;;2.90;;
32094;SDS011;18608;53.688;10.748;2023-08-01T11:05:33;3.03;;;2.40;;
32094;SDS011;18608;53.688;10.748;2023-08-01T11:08:01;3.33;;;1.90;;
32094;SDS011;18608;53.688;10.748;2023-08-01T11:10:28;2.20;;;2.00;;
32094;SDS011;18608;53.688;10.748;2023-08-01T11:12:55;4.40;;;2.03;;
32094;SDS011;18608;53.688;10.748;2023-08-01T11:15:21;2.33;;;1.67;;
32094;SDS011;18608;53.688;10.748;2023-08-01T11:17:53;3.53;;;1.80;;
32094;SDS011;18608;53.688;10.748;2023-08-01T11:20:21;1.57;;;1.47;;
32094;SDS011;18608;53.688;10.748;2023-08-01T11:25:31;2.60;;;2.13;;
32094;SDS011;18608;53.688;10.748;2023-08-01T11:28:01;1.63;;;1.53;;
32094;SDS011;18608;53.688;10.748;2023-08-01T11:30:35;3.00;;;1.50;;
32094;SDS011;18608;53.688;10.748;2023-08-01T11:33:02;1.63;;;1.47;;
32094;SDS011;18608;53.688;10.748;2023-08-01T11:35:38;1.97;;;1.80;;
32094;SDS011;18608;53.688;10.748;2023-08-01T11:38:04;2.30;;;1.80;;
32094;SDS011;18608;53.688;10.748;2023-08-01T11:40:31;1.83;;;1.60;;
32094;SDS011;18608;53.688;10.748;2023-08-01T11:42:57;1.53;;;1.43;;
32094;SDS011;18608;53.688;10.748;2023-08-01T11:45:23;7.43;;;1.87;;
32094;SDS011;18608;53.688;10.748;2023-08-01T11:47:50;7.30;;;2.00;;
32094;SDS011;18608;53.688;10.748;2023-08-01T11:50:20;1.97;;;1.87;;
32094;SDS011;18608;53.688;10.748;2023-08-01T11:52:50;1.43;;;1.33;;
32094;SDS011;18608;53.688;10.748;2023-08-01T11:55:22;1.83;;;1.30;;
32094;SDS011;18608;53.688;10.748;2023-08-01T11:57:51;1.47;;;1.17;;
32094;SDS011;18608;53.688;10.748;2023-08-01T12:00:24;1.93;;;1.30;;
32094;SDS011;18608;53.688;10.748;2023-08-01T12:02:50;2.53;;;1.70;;
32094;SDS011;18608;53.688;10.748;2023-08-01T12:05:23;1.90;;;1.40;;
32094;SDS011;18608;53.688;10.748;2023-08-01T12:07:49;1.50;;;1.40;;
32094;SDS011;18608;53.688;10.748;2023-08-01T12:10:15;1.53;;;1.43;;
32094;SDS011;18608;53.688;10.748;2023-08-01T12:12:45;3.87;;;1.93;;
32094;SDS011;18608;53.688;10.748;2023-08-01T12:15:14;3.27;;;1.80;;
32094;SDS011;18608;53.688;10.748;2023-08-01T12:17:40;4.33;;;1.80;;
32094;SDS011;18608;53.688;10.748;2023-08-01T12:20:07;3.50;;;1.27;;
32094;SDS011;18608;53.688;10.748;2023-08-01T12:22:33;5.20;;;1.73;;
32094;SDS011;18608;53.688;10.748;2023-08-01T12:24:59;1.40;;;1.30;;
32094;SDS011;18608;53.688;10.748;2023-08-01T12:27:25;2.03;;;1.13;;
32094;SDS011;18608;53.688;10.748;2023-08-01T12:29:51;1.03;;;1.03;;
32094;SDS011;18608;53.688;10.748;2023-08-01T12:32:17;1.30;;;1.10;;
32094;SDS011;18608;53.688;10.748;2023-08-01T12:34:43;1.50;;;1.40;;
32094;SDS011;18608;53.688;10.748;2023-08-01T12:37:09;2.43;;;1.00;;
32094;SDS011;18608;53.688;10.748;2023-08-01T12:39:35;5.40;;;1.20;;
32094;SDS011;18608;53.688;10.748;2023-08-01T12:42:01;1.00;;;1.00;;
32094;SDS011;18608;53.688;10.748;2023-08-01T12:44:27;0.90;;;0.90;;
32094;SDS011;18608;53.688;10.748;2023-08-01T12:46:53;2.80;;;1.20;;
32094;SDS011;18608;53.688;10.748;2023-08-01T12:49:19;2.47;;;0.97;;
32094;SDS011;18608;53.688;10.748;2023-08-01T12:51:45;1.00;;;0.90;;
32094;SDS011;18608;53.688;10.748;2023-08-01T12:54:11;2.30;;;1.13;;
32094;SDS011;18608;53.688;10.748;2023-08-01T12:56:37;4.33;;;1.30;;
32094;SDS011;18608;53.688;10.748;2023-08-01T12:59:03;0.87;;;0.87;;
32094;SDS011;18608;53.688;10.748;2023-08-01T13:01:29;1.00;;;0.90;;
32094;SDS011;18608;53.688;10.748;2023-08-01T13:03:55;1.67;;;0.90;;
32094;SDS011;18608;53.688;10.748;2023-08-01T13:06:21;4.97;;;0.80;;
32094;SDS011;18608;53.688;10.748;2023-08-01T13:08:47;1.57;;;0.77;;
32094;SDS011;18608;53.688;10.748;2023-08-01T13:11:13;3.70;;;0.93;;
32094;SDS011;18608;53.688;10.748;2023-08-01T13:13:40;1.00;;;0.90;;
32094;SDS011;18608;53.688;10.748;2023-08-01T13:16:06;1.93;;;1.00;;
32094;SDS011;18608;53.688;10.748;2023-08-01T13:18:32;1.33;;;0.90;;
32094;SDS011;18608;53.688;10.748;2023-08-01T13:20:58;0.80;;;0.80;;
32094;SDS011;18608;53.688;10.748;2023-08-01T13:23:25;3.90;;;0.90;;
32094;SDS011;18608;53.688;10.748;2023-08-01T13:25:51;0.70;;;0.70;;
32094;SDS011;18608;53.688;10.748;2023-08-01T13:28:17;0.80;;;0.80;;
32094;SDS011;18608;53.688;10.748;2023-08-01T13:30:43;1.20;;;0.93;;
32094;SDS011;18608;53.688;10.748;2023-08-01T13:33:09;0.97;;;0.97;;
32094;SDS011;18608;53.688;10.748;2023-08-01T13:35:35;0.70;;;0.70;;
32094;SDS011;18608;53.688;10.748;2023-08-01T13:38:01;0.70;;;0.70;;
32094;SDS011;18608;53.688;10.748;2023-08-01T13:40:28;2.73;;;1.10;;
32094;SDS011;18608;53.688;10.748;2023-08-01T13:42:54;1.37;;;0.90;;
32094;SDS011;18608;53.688;10.748;2023-08-01T13:45:20;1.90;;;1.03;;
32094;SDS011;18608;53.688;10.748;2023-08-01T13:47:46;2.57;;;1.03;;
32094;SDS011;18608;53.688;10.748;2023-08-01T13:50:12;0.73;;;0.73;;
32094;SDS011;18608;53.688;10.748;2023-08-01T13:52:38;2.63;;;1.23;;
32094;SDS011;18608;53.688;10.748;2023-08-01T13:55:04;6.67;;;1.00;;
32094;SDS011;18608;53.688;10.748;2023-08-01T13:57:32;1.70;;;1.60;;
32094;SDS011;18608;53.688;10.748;2023-08-01T13:59:58;1.10;;;1.00;;
32094;SDS011;18608;53.688;10.748;2023-08-01T14:02:24;1.57;;;0.90;;
32094;SDS011;18608;53.688;10.748;2023-08-01T14:04:53;1.13;;;0.90;;
32094;SDS011;18608;53.688;10.748;2023-08-01T14:07:19;1.57;;;1.10;;
32094;SDS011;18608;53.688;10.748;2023-08-01T14:09:44;1.60;;;1.50;;
32094;SDS011;18608;53.688;10.748;2023-08-01T14:12:10;1.87;;;1.20;;
32094;SDS011;18608;53.688;10.748;2023-08-01T14:14:36;1.47;;;1.00;;
32094;SDS011;18608;53.688;10.748;2023-08-01T14:17:03;2.30;;;1.70;;
32094;SDS011;18608;53.688;10.748;2023-08-01T14:19:29;2.50;;;1.03;;
32094;SDS011;18608;53.688;10.748;2023-08-01T14:21:55;1.13;;;1.13;;
32094;SDS011;18608;53.688;10.748;2023-08-01T14:24:22;1.30;;;1.00;;
32094;SDS011;18608;53.688;10.748;2023-08-01T14:26:48;3.53;;;1.07;;
32094;SDS011;18608;53.688;10.748;2023-08-01T14:29:16;1.23;;;1.23;;
32094;SDS011;18608;53.688;10.748;2023-08-01T14:31:43;2.03;;;1.20;;
32094;SDS011;18608;53.688;10.748;2023-08-01T14:34:09;3.33;;;1.10;;